createdAt,value
2022-09-20T00:03:56.524Z,11.07
2022-09-20T00:06:26.428Z,11.05
2022-09-20T00:08:53.275Z,11.04
2022-09-20T00:11:23.591Z,11.04
2022-09-20T00:13:53.119Z,11.03
2022-09-20T00:16:25.811Z,11.02
2022-09-20T00:18:56.445Z,11.02
2022-09-20T00:21:28.026Z,11.03
2022-09-20T00:23:58.684Z,11.02
2022-09-20T00:26:28.541Z,11.02
2022-09-20T00:28:58.756Z,11.02
2022-09-20T00:31:27.687Z,11.01
2022-09-20T00:34:17.105Z,11.01
2022-09-20T00:36:45.502Z,10.99
2022-09-20T00:39:15.491Z,11.00
2022-09-20T00:41:42.647Z,10.99
2022-09-20T00:44:47.898Z,10.94
2022-09-20T00:47:24.498Z,10.97
2022-09-20T00:49:52.395Z,10.82
2022-09-20T00:52:19.640Z,10.92
2022-09-20T00:54:46.952Z,10.92
2022-09-20T00:57:13.706Z,10.92
2022-09-20T00:59:44.473Z,10.92
2022-09-20T01:02:16.769Z,10.91
2022-09-20T01:04:45.157Z,10.86
2022-09-20T01:07:15.940Z,10.78
2022-09-20T01:09:42.613Z,10.72
2022-09-20T01:12:15.077Z,10.68
2022-09-20T01:14:43.588Z,10.65
2022-09-20T01:17:11.600Z,10.62
2022-09-20T01:22:27.721Z,10.64
2022-09-20T01:30:19.965Z,10.70
2022-09-20T01:33:12.231Z,10.66
2022-09-20T01:35:41.571Z,10.73
2022-09-20T01:38:48.424Z,10.68
2022-09-20T01:41:24.619Z,10.73
2022-09-20T01:46:54.915Z,10.71
2022-09-20T01:49:59.923Z,10.66
2022-09-20T01:53:00.879Z,10.63
2022-09-20T02:15:56.285Z,10.76
2022-09-20T02:19:02.125Z,10.73
2022-09-20T02:21:39.425Z,10.78
2022-09-20T02:24:37.918Z,10.80
2022-09-20T02:27:30.742Z,10.83
2022-09-20T02:35:30.208Z,10.95
2022-09-20T02:43:26.356Z,11.00
2022-09-20T02:48:38.222Z,11.04
2022-09-20T02:51:20.311Z,11.04
2022-09-20T03:02:32.051Z,11.40
2022-09-20T03:08:17.633Z,11.18
2022-09-20T03:16:57.724Z,11.16
2022-09-20T03:39:40.147Z,11.30
2022-09-20T03:56:39.836Z,11.32
2022-09-20T03:59:37.450Z,11.34
2022-09-20T04:02:24.959Z,11.36
2022-09-20T04:10:51.640Z,11.40
2022-09-20T04:13:35.727Z,11.37
2022-09-20T04:19:06.843Z,11.37
2022-09-20T04:24:21.385Z,11.42
2022-09-20T04:26:52.442Z,11.42
2022-09-20T04:29:32.523Z,11.41
2022-09-20T04:32:28.238Z,11.38
2022-09-20T04:37:39.719Z,11.43
2022-09-20T04:43:37.803Z,11.41
2022-09-20T05:00:24.399Z,11.48
2022-09-20T05:17:41.536Z,11.32
2022-09-20T05:23:25.630Z,11.27
2022-09-20T05:29:10.146Z,11.24
2022-09-20T05:31:52.910Z,11.22
2022-09-20T05:34:44.928Z,11.18
2022-09-20T05:40:06.468Z,11.59
2022-09-20T05:42:42.160Z,11.35
2022-09-20T05:45:40.727Z,11.24
2022-09-20T05:48:18.025Z,11.25
2022-09-20T06:09:58.178Z,11.17
2022-09-20T06:13:04.716Z,11.18
2022-09-20T06:23:28.388Z,11.28
2022-09-20T06:28:35.203Z,11.36
2022-09-20T06:31:06.073Z,11.40
2022-09-20T06:33:33.192Z,11.43
2022-09-20T06:36:49.508Z,11.46
2022-09-20T06:40:07.138Z,11.49
2022-09-20T06:42:33.696Z,11.62
2022-09-20T06:45:00.328Z,11.66
2022-09-20T06:47:27.102Z,11.73
2022-09-20T06:49:53.773Z,11.80
2022-09-20T06:52:23.021Z,11.88
2022-09-20T06:54:53.985Z,11.94
2022-09-20T06:57:38.450Z,11.96
2022-09-20T07:00:07.000Z,12.06
2022-09-20T07:02:33.657Z,12.12
2022-09-20T07:05:00.307Z,12.20
2022-09-20T07:07:27.023Z,12.28
2022-09-20T07:09:53.614Z,12.36
2022-09-20T07:12:21.224Z,12.42
2022-09-20T07:14:47.869Z,12.48
2022-09-20T07:17:14.767Z,12.58
2022-09-20T07:19:41.430Z,12.66
2022-09-20T07:22:07.999Z,12.76
2022-09-20T07:24:34.847Z,12.83
2022-09-20T07:27:04.309Z,12.93
2022-09-20T07:29:31.583Z,13.00
2022-09-20T07:31:58.801Z,13.06
2022-09-20T07:34:25.740Z,13.13
2022-09-20T07:36:52.375Z,13.19
2022-09-20T07:39:19.071Z,13.27
2022-09-20T07:41:48.556Z,13.35
2022-09-20T07:44:31.159Z,13.44
2022-09-20T07:46:59.405Z,13.52
2022-09-20T07:49:28.710Z,13.61
2022-09-20T07:51:55.304Z,13.69
2022-09-20T07:54:21.869Z,13.74
2022-09-20T07:56:48.997Z,13.80
2022-09-20T07:59:16.124Z,13.86
2022-09-20T08:01:43.117Z,13.94
2022-09-20T08:04:10.962Z,14.02
2022-09-20T08:06:40.480Z,14.11
2022-09-20T08:09:11.161Z,14.23
2022-09-20T08:11:39.800Z,14.35
2022-09-20T08:14:08.849Z,14.50
2022-09-20T08:16:40.143Z,14.67
2022-09-20T08:19:07.512Z,14.81
2022-09-20T08:21:35.787Z,15.00
2022-09-20T08:24:04.068Z,15.27
2022-09-20T08:26:31.673Z,15.61
2022-09-20T08:28:59.924Z,15.96
2022-09-20T08:31:31.486Z,16.34
2022-09-20T08:33:59.237Z,16.87
2022-09-20T08:36:26.464Z,17.44
2022-09-20T08:41:46.632Z,18.27
2022-09-20T08:47:04.449Z,18.63
2022-09-20T08:49:31.384Z,18.59
2022-09-20T08:52:03.532Z,18.57
2022-09-20T08:54:33.535Z,18.65
2022-09-20T08:57:10.860Z,18.70
2022-09-20T08:59:37.428Z,18.83
2022-09-20T09:02:09.476Z,19.17
2022-09-20T09:04:36.537Z,19.42
2022-09-20T09:07:04.297Z,19.72
2022-09-20T09:09:37.639Z,19.87
2022-09-20T09:12:05.188Z,19.91
2022-09-20T09:14:54.835Z,20.02
2022-09-20T09:17:27.585Z,20.09
2022-09-20T09:19:56.709Z,20.31
2022-09-20T09:22:32.208Z,20.58
2022-09-20T09:30:38.121Z,21.35
2022-09-20T09:38:39.201Z,21.06
2022-09-20T09:41:26.162Z,20.94
2022-09-20T09:46:40.792Z,20.64
2022-09-20T09:49:26.469Z,20.58
2022-09-20T09:54:39.132Z,20.62
2022-09-20T10:00:17.389Z,20.79
2022-09-20T10:11:17.995Z,21.51
2022-09-20T10:22:18.544Z,22.81
2022-09-20T10:27:57.482Z,23.07
2022-09-20T10:30:31.985Z,23.13
2022-09-20T10:41:53.829Z,22.67
2022-09-20T10:47:20.371Z,22.39
2022-09-20T10:50:15.760Z,22.29
2022-09-20T10:53:09.199Z,22.13
2022-09-20T10:56:15.754Z,21.94
2022-09-20T11:09:32.418Z,21.87
2022-09-20T11:12:12.492Z,21.86
2022-09-20T11:14:51.092Z,21.86
2022-09-20T11:17:26.979Z,21.91
2022-09-20T11:20:31.622Z,21.91
2022-09-20T11:25:48.572Z,21.82
2022-09-20T11:28:44.885Z,21.72
2022-09-20T11:33:56.453Z,21.86
2022-09-20T11:36:34.272Z,21.96
2022-09-20T11:41:38.100Z,22.11
2022-09-20T11:44:10.051Z,22.13
2022-09-20T11:46:42.397Z,22.11
2022-09-20T11:49:19.141Z,22.10
2022-09-20T11:57:15.789Z,22.34
2022-09-20T11:59:51.039Z,22.44
2022-09-20T12:02:30.184Z,22.46
2022-09-20T12:04:57.685Z,22.47
2022-09-20T12:07:43.735Z,22.47
2022-09-20T12:10:28.788Z,22.43
2022-09-20T12:12:59.582Z,22.42
2022-09-20T12:18:09.615Z,22.21
2022-09-20T12:26:38.426Z,21.73
2022-09-20T12:32:02.706Z,21.53
2022-09-20T12:34:36.278Z,21.42
2022-09-20T12:39:50.106Z,21.27
2022-09-20T12:42:28.924Z,21.21
2022-09-20T12:45:01.469Z,21.21
2022-09-20T12:47:32.201Z,21.17
2022-09-20T12:50:21.509Z,21.17
2022-09-20T12:53:07.951Z,21.14
2022-09-20T12:55:43.902Z,21.08
2022-09-20T13:11:24.277Z,20.78
2022-09-20T13:13:58.217Z,20.76
2022-09-20T13:25:02.872Z,20.59
2022-09-20T13:27:34.617Z,20.58
2022-09-20T13:32:47.102Z,20.58
2022-09-20T13:35:19.104Z,20.57
2022-09-20T13:43:22.563Z,20.72
2022-09-20T13:45:56.279Z,20.69
2022-09-20T13:48:27.700Z,20.68
2022-09-20T13:50:55.152Z,20.65
2022-09-20T13:53:40.613Z,20.60
2022-09-20T13:58:53.807Z,20.60
2022-09-20T14:01:27.870Z,20.63
2022-09-20T14:03:55.205Z,20.65
2022-09-20T14:06:28.258Z,20.67
2022-09-20T14:08:56.080Z,20.69
2022-09-20T14:11:25.505Z,20.71
2022-09-20T14:13:54.887Z,20.71
2022-09-20T14:16:24.782Z,20.71
2022-09-20T14:18:52.279Z,20.69
2022-09-20T14:21:24.203Z,20.70
2022-09-20T14:26:33.606Z,20.70
2022-09-20T14:29:29.650Z,20.64
2022-09-20T14:31:57.894Z,20.63
2022-09-20T14:34:24.537Z,20.62
2022-09-20T14:36:51.347Z,20.59
2022-09-20T14:39:19.186Z,20.58
2022-09-20T14:41:46.633Z,20.53
2022-09-20T14:44:33.783Z,20.46
2022-09-20T14:47:13.072Z,20.47
2022-09-20T14:49:43.339Z,20.42
2022-09-20T14:57:39.879Z,20.40
2022-09-20T15:00:15.941Z,20.38
2022-09-20T15:02:43.512Z,20.27
2022-09-20T15:05:20.631Z,20.39
2022-09-20T15:07:47.751Z,20.44
2022-09-20T15:10:15.348Z,20.48
2022-09-20T15:12:43.017Z,20.56
2022-09-20T15:15:17.559Z,20.61
2022-09-20T15:17:45.635Z,20.62
2022-09-20T15:20:18.686Z,20.66
2022-09-20T15:22:50.280Z,20.69
2022-09-20T15:25:19.372Z,20.73
2022-09-20T15:27:46.625Z,20.72
2022-09-20T15:30:17.059Z,20.74
2022-09-20T15:32:44.628Z,20.77
2022-09-20T15:35:11.895Z,20.78
2022-09-20T15:37:38.649Z,20.83
2022-09-20T15:40:06.838Z,20.86
2022-09-20T15:42:37.945Z,20.84
2022-09-20T15:45:08.992Z,20.85
2022-09-20T15:47:37.620Z,20.84
2022-09-20T15:50:07.529Z,20.80
2022-09-20T15:52:36.779Z,20.79
2022-09-20T15:55:04.210Z,20.76
2022-09-20T15:57:32.011Z,20.78
2022-09-20T15:59:59.495Z,20.83
2022-09-20T16:02:27.024Z,20.89
2022-09-20T16:04:55.897Z,20.93
2022-09-20T16:07:25.738Z,20.98
2022-09-20T16:09:54.369Z,21.01
2022-09-20T16:12:23.116Z,21.05
2022-09-20T16:14:50.097Z,21.06
2022-09-20T16:17:17.797Z,21.10
2022-09-20T16:19:46.426Z,21.09
2022-09-20T16:22:13.019Z,21.07
2022-09-20T16:24:39.606Z,21.06
2022-09-20T16:27:08.510Z,21.06
2022-09-20T16:29:35.101Z,21.03
2022-09-20T16:32:03.715Z,20.98
2022-09-20T16:34:32.811Z,20.92
2022-09-20T16:37:01.925Z,20.86
2022-09-20T16:39:30.423Z,20.77
2022-09-20T16:42:03.580Z,20.72
2022-09-20T16:44:31.976Z,20.68
2022-09-20T16:46:58.537Z,20.66
2022-09-20T16:49:28.839Z,20.63
2022-09-20T16:51:56.090Z,20.61
2022-09-20T16:54:22.953Z,20.57
2022-09-20T16:56:51.209Z,20.55
2022-09-20T16:59:21.373Z,20.50
2022-09-20T17:01:48.767Z,20.45
2022-09-20T17:04:18.443Z,20.42
2022-09-20T17:06:45.947Z,20.38
2022-09-20T17:09:13.997Z,20.35
2022-09-20T17:11:45.919Z,20.33
2022-09-20T17:14:13.989Z,20.25
2022-09-20T17:16:42.365Z,20.19
2022-09-20T17:19:13.225Z,20.14
2022-09-20T17:21:43.731Z,20.08
2022-09-20T17:24:10.323Z,20.00
2022-09-20T17:26:40.318Z,19.94
2022-09-20T17:29:09.920Z,19.87
2022-09-20T17:31:37.921Z,19.58
2022-09-20T17:34:07.800Z,19.65
2022-09-20T17:36:39.713Z,19.60
2022-09-20T17:39:10.083Z,19.53
2022-09-20T17:41:37.481Z,19.46
2022-09-20T17:44:12.229Z,19.39
2022-09-20T17:46:40.848Z,19.33
2022-09-20T17:49:11.330Z,19.26
2022-09-20T17:51:47.264Z,19.19
2022-09-20T17:54:14.443Z,19.13
2022-09-20T17:56:43.621Z,19.08
2022-09-20T17:59:11.854Z,19.03
2022-09-20T18:01:40.284Z,18.98
2022-09-20T18:04:08.404Z,18.93
2022-09-20T18:06:37.820Z,18.88
2022-09-20T18:09:07.273Z,18.82
2022-09-20T18:11:38.214Z,18.78
2022-09-20T18:14:06.804Z,18.73
2022-09-20T18:16:35.100Z,18.68
2022-09-20T18:19:01.885Z,18.64
2022-09-20T18:21:31.090Z,18.59
2022-09-20T18:23:58.028Z,18.56
2022-09-20T18:26:30.041Z,18.54
2022-09-20T18:31:37.194Z,18.46
2022-09-20T18:34:06.269Z,18.45
2022-09-20T18:36:36.210Z,18.42
2022-09-20T18:39:03.158Z,18.40
2022-09-20T18:41:33.004Z,18.38
2022-09-20T18:44:00.755Z,18.36
2022-09-20T18:46:30.793Z,18.33
2022-09-20T18:49:00.086Z,18.29
2022-09-20T18:51:29.302Z,18.24
2022-09-20T18:53:57.022Z,18.21
2022-09-20T18:59:06.367Z,18.13
2022-09-20T19:09:43.305Z,18.12
2022-09-20T19:20:42.321Z,17.90
2022-09-20T19:26:24.930Z,17.82
2022-09-20T19:28:55.253Z,17.78
2022-09-20T19:31:26.214Z,17.76
2022-09-20T19:33:54.953Z,17.72
2022-09-20T19:36:23.433Z,17.67
2022-09-20T19:39:19.848Z,17.60
2022-09-20T19:41:59.829Z,17.58
2022-09-20T19:50:15.851Z,17.50
2022-09-20T19:52:44.079Z,17.50
2022-09-20T19:55:12.589Z,17.47
2022-09-20T19:57:43.433Z,17.44
2022-09-20T20:00:15.287Z,17.41
2022-09-20T20:02:44.249Z,17.39
2022-09-20T20:05:13.127Z,17.37
2022-09-20T20:07:49.191Z,17.33
2022-09-20T20:15:53.925Z,17.56
2022-09-20T20:21:24.665Z,17.31
2022-09-20T20:26:28.179Z,17.21
2022-09-20T20:28:54.736Z,17.18
2022-09-20T20:31:21.675Z,17.15
2022-09-20T20:33:48.648Z,17.13
2022-09-20T20:36:19.252Z,17.11
2022-09-20T20:38:50.977Z,17.08
2022-09-20T20:41:21.433Z,17.06
2022-09-20T20:43:51.849Z,17.03
2022-09-20T20:46:19.482Z,17.01
2022-09-20T20:48:47.839Z,16.99
2022-09-20T20:51:17.825Z,16.98
2022-09-20T20:53:49.600Z,16.94
2022-09-20T20:56:20.089Z,16.92
2022-09-20T20:58:47.801Z,16.90
2022-09-20T21:01:17.426Z,16.89
2022-09-20T21:03:47.415Z,16.87
2022-09-20T21:06:15.629Z,16.84
2022-09-20T21:08:48.848Z,16.83
2022-09-20T21:11:23.430Z,16.80
2022-09-20T21:13:51.716Z,16.79
2022-09-20T21:16:21.526Z,16.78
2022-09-20T21:18:49.740Z,16.77
2022-09-20T21:24:04.308Z,16.74
2022-09-20T21:26:32.243Z,16.72
2022-09-20T21:29:01.521Z,16.72
2022-09-20T21:31:31.518Z,16.70
2022-09-20T21:33:58.475Z,16.69
2022-09-20T21:36:29.824Z,16.69
2022-09-20T21:38:56.651Z,16.67
2022-09-20T21:41:25.754Z,16.64
2022-09-20T21:43:55.321Z,16.63
2022-09-20T21:46:25.748Z,16.60
2022-09-20T21:48:52.405Z,16.58
2022-09-20T21:51:20.571Z,16.58
2022-09-20T21:53:49.253Z,16.57
2022-09-20T21:56:17.684Z,16.54
2022-09-20T21:58:45.986Z,16.53
2022-09-20T22:01:15.359Z,16.52
2022-09-20T22:03:44.554Z,16.51
2022-09-20T22:08:58.511Z,16.46
2022-09-20T22:11:29.570Z,16.44
2022-09-20T22:13:56.640Z,16.42
2022-09-20T22:16:28.471Z,16.41
2022-09-20T22:18:56.040Z,16.39
2022-09-20T22:24:01.720Z,16.76
2022-09-20T22:26:32.199Z,16.50
2022-09-20T22:28:59.078Z,16.42
2022-09-20T22:31:28.485Z,16.40
2022-09-20T22:33:57.622Z,16.37
2022-09-20T22:36:29.585Z,16.35
2022-09-20T22:38:56.392Z,16.32
2022-09-20T22:41:23.983Z,16.30
2022-09-20T22:43:50.793Z,16.29
2022-09-20T22:46:21.343Z,16.28
2022-09-20T22:48:48.599Z,16.27
2022-09-20T22:51:17.564Z,16.25
2022-09-20T22:53:45.111Z,16.24
2022-09-20T22:56:14.885Z,16.23
2022-09-20T22:58:42.839Z,16.03
2022-09-20T23:01:12.847Z,16.17
2022-09-20T23:03:41.348Z,16.16
2022-09-20T23:08:52.547Z,16.16
2022-09-20T23:11:20.270Z,16.15
2022-09-20T23:13:47.144Z,16.14
2022-09-20T23:18:50.785Z,16.11
2022-09-20T23:21:18.016Z,16.08
2022-09-20T23:23:45.621Z,16.06
2022-09-20T23:26:16.105Z,16.06
2022-09-20T23:28:46.765Z,16.05
2022-09-20T23:31:16.373Z,16.04
2022-09-20T23:33:47.787Z,16.03
2022-09-20T23:36:15.763Z,16.03
2022-09-20T23:38:42.327Z,16.02
2022-09-20T23:41:12.247Z,16.02
2022-09-20T23:43:39.986Z,16.01
2022-09-20T23:46:07.422Z,16.02
2022-09-20T23:48:36.359Z,16.01
2022-09-20T23:51:04.626Z,16.01
2022-09-20T23:53:31.902Z,15.99
2022-09-20T23:55:58.471Z,15.98
2022-09-20T23:58:25.048Z,15.97
